sensor_id;sensor_type;location;lat;lon;timestamp;P1;durP1;ratioP1;P2;durP2;ratioP2
79019;SDS011;72857;44.740;37.770;2023-12-20T00:00:59;8.20;;;3.67;;
79019;SDS011;72857;44.740;37.770;2023-12-20T00:02:00;8.52;;;3.70;;
79019;SDS011;72857;44.740;37.770;2023-12-20T00:03:03;7.68;;;3.78;;
79019;SDS011;72857;44.740;37.770;2023-12-20T00:04:05;7.38;;;3.78;;
79019;SDS011;72857;44.740;37.770;2023-12-20T00:05:07;7.30;;;3.70;;
79019;SDS011;72857;44.740;37.770;2023-12-20T00:06:10;11.05;;;4.00;;
79019;SDS011;72857;44.740;37.770;2023-12-20T00:07:12;7.75;;;3.88;;
79019;SDS011;72857;44.740;37.770;2023-12-20T00:08:14;7.30;;;3.15;;
79019;SDS011;72857;44.740;37.770;2023-12-20T00:09:16;6.68;;;3.17;;
79019;SDS011;72857;44.740;37.770;2023-12-20T00:10:18;7.60;;;3.03;;
79019;SDS011;72857;44.740;37.770;2023-12-20T00:11:20;9.32;;;3.17;;
79019;SDS011;72857;44.740;37.770;2023-12-20T00:12:21;5.88;;;2.67;;
79019;SDS011;72857;44.740;37.770;2023-12-20T00:13:23;7.70;;;3.30;;
79019;SDS011;72857;44.740;37.770;2023-12-20T00:14:25;7.35;;;2.67;;
79019;SDS011;72857;44.740;37.770;2023-12-20T00:15:27;6.60;;;2.83;;
79019;SDS011;72857;44.740;37.770;2023-12-20T00:16:28;7.63;;;3.13;;
79019;SDS011;72857;44.740;37.770;2023-12-20T00:17:30;6.55;;;2.83;;
79019;SDS011;72857;44.740;37.770;2023-12-20T00:18:32;7.28;;;2.53;;
79019;SDS011;72857;44.740;37.770;2023-12-20T00:19:33;8.68;;;2.83;;
79019;SDS011;72857;44.740;37.770;2023-12-20T00:20:35;9.00;;;3.03;;
79019;SDS011;72857;44.740;37.770;2023-12-20T00:21:37;7.32;;;3.42;;
79019;SDS011;72857;44.740;37.770;2023-12-20T00:22:38;10.00;;;3.10;;
79019;SDS011;72857;44.740;37.770;2023-12-20T00:23:40;5.70;;;2.50;;
79019;SDS011;72857;44.740;37.770;2023-12-20T00:24:42;8.40;;;3.35;;
79019;SDS011;72857;44.740;37.770;2023-12-20T00:25:43;10.15;;;3.20;;
79019;SDS011;72857;44.740;37.770;2023-12-20T00:26:45;8.18;;;3.30;;
79019;SDS011;72857;44.740;37.770;2023-12-20T00:27:47;7.30;;;3.40;;
79019;SDS011;72857;44.740;37.770;2023-12-20T00:28:48;6.85;;;2.88;;
79019;SDS011;72857;44.740;37.770;2023-12-20T00:29:50;10.80;;;3.17;;
79019;SDS011;72857;44.740;37.770;2023-12-20T00:30:52;11.02;;;2.90;;
79019;SDS011;72857;44.740;37.770;2023-12-20T00:31:53;5.97;;;2.75;;
79019;SDS011;72857;44.740;37.770;2023-12-20T00:32:55;9.10;;;2.92;;
79019;SDS011;72857;44.740;37.770;2023-12-20T00:33:57;8.32;;;3.22;;
79019;SDS011;72857;44.740;37.770;2023-12-20T00:34:59;8.25;;;2.70;;
79019;SDS011;72857;44.740;37.770;2023-12-20T00:36:00;9.13;;;3.35;;
79019;SDS011;72857;44.740;37.770;2023-12-20T00:37:02;6.07;;;3.65;;
79019;SDS011;72857;44.740;37.770;2023-12-20T00:38:04;8.07;;;3.65;;
79019;SDS011;72857;44.740;37.770;2023-12-20T00:39:09;10.13;;;3.20;;
79019;SDS011;72857;44.740;37.770;2023-12-20T00:40:11;9.10;;;3.03;;
79019;SDS011;72857;44.740;37.770;2023-12-20T00:41:13;7.82;;;3.83;;
79019;SDS011;72857;44.740;37.770;2023-12-20T00:42:14;8.30;;;3.47;;
79019;SDS011;72857;44.740;37.770;2023-12-20T00:43:16;7.18;;;3.25;;
79019;SDS011;72857;44.740;37.770;2023-12-20T00:44:17;6.43;;;3.03;;
79019;SDS011;72857;44.740;37.770;2023-12-20T00:45:19;8.00;;;3.60;;
79019;SDS011;72857;44.740;37.770;2023-12-20T00:46:21;5.97;;;2.58;;
79019;SDS011;72857;44.740;37.770;2023-12-20T00:47:22;7.18;;;2.95;;
79019;SDS011;72857;44.740;37.770;2023-12-20T00:48:24;8.15;;;3.28;;
79019;SDS011;72857;44.740;37.770;2023-12-20T00:49:28;8.48;;;3.55;;
79019;SDS011;72857;44.740;37.770;2023-12-20T00:50:29;8.88;;;3.38;;
79019;SDS011;72857;44.740;37.770;2023-12-20T00:51:31;9.60;;;4.18;;
79019;SDS011;72857;44.740;37.770;2023-12-20T00:52:32;9.27;;;2.97;;
79019;SDS011;72857;44.740;37.770;2023-12-20T00:53:34;7.68;;;3.70;;
79019;SDS011;72857;44.740;37.770;2023-12-20T00:54:36;11.38;;;3.60;;
79019;SDS011;72857;44.740;37.770;2023-12-20T00:55:37;6.65;;;3.25;;
79019;SDS011;72857;44.740;37.770;2023-12-20T00:56:39;11.00;;;4.03;;
79019;SDS011;72857;44.740;37.770;2023-12-20T00:57:41;8.70;;;4.53;;
79019;SDS011;72857;44.740;37.770;2023-12-20T00:58:42;10.55;;;3.67;;
79019;SDS011;72857;44.740;37.770;2023-12-20T00:59:44;8.25;;;3.17;;
79019;SDS011;72857;44.740;37.770;2023-12-20T01:00:46;9.98;;;4.15;;
79019;SDS011;72857;44.740;37.770;2023-12-20T01:01:47;9.27;;;3.63;;
79019;SDS011;72857;44.740;37.770;2023-12-20T01:02:49;8.60;;;3.55;;
79019;SDS011;72857;44.740;37.770;2023-12-20T01:03:52;9.52;;;3.55;;
79019;SDS011;72857;44.740;37.770;2023-12-20T01:04:54;10.30;;;3.20;;
79019;SDS011;72857;44.740;37.770;2023-12-20T01:05:55;7.63;;;4.28;;
79019;SDS011;72857;44.740;37.770;2023-12-20T01:06:57;6.95;;;2.97;;
79019;SDS011;72857;44.740;37.770;2023-12-20T01:08:00;6.32;;;3.03;;
79019;SDS011;72857;44.740;37.770;2023-12-20T01:09:04;10.15;;;3.70;;
79019;SDS011;72857;44.740;37.770;2023-12-20T01:10:06;10.27;;;3.92;;
79019;SDS011;72857;44.740;37.770;2023-12-20T01:11:08;9.05;;;4.05;;
79019;SDS011;72857;44.740;37.770;2023-12-20T01:12:09;9.20;;;3.55;;
79019;SDS011;72857;44.740;37.770;2023-12-20T01:13:11;9.65;;;4.05;;
79019;SDS011;72857;44.740;37.770;2023-12-20T01:14:13;7.45;;;3.30;;
79019;SDS011;72857;44.740;37.770;2023-12-20T01:15:14;7.90;;;3.53;;
79019;SDS011;72857;44.740;37.770;2023-12-20T01:16:16;12.32;;;4.10;;
79019;SDS011;72857;44.740;37.770;2023-12-20T01:17:18;6.55;;;3.00;;
79019;SDS011;72857;44.740;37.770;2023-12-20T01:18:19;8.57;;;3.78;;
79019;SDS011;72857;44.740;37.770;2023-12-20T01:19:21;12.02;;;4.00;;
79019;SDS011;72857;44.740;37.770;2023-12-20T01:20:24;13.40;;;4.63;;
79019;SDS011;72857;44.740;37.770;2023-12-20T01:21:26;6.85;;;3.67;;
79019;SDS011;72857;44.740;37.770;2023-12-20T01:22:28;7.40;;;3.50;;
79019;SDS011;72857;44.740;37.770;2023-12-20T01:23:30;11.73;;;3.38;;
79019;SDS011;72857;44.740;37.770;2023-12-20T01:24:32;6.22;;;2.78;;
79019;SDS011;72857;44.740;37.770;2023-12-20T01:25:34;7.82;;;3.00;;
79019;SDS011;72857;44.740;37.770;2023-12-20T01:26:36;11.70;;;3.78;;
79019;SDS011;72857;44.740;37.770;2023-12-20T01:27:37;7.03;;;3.53;;
79019;SDS011;72857;44.740;37.770;2023-12-20T01:28:39;9.75;;;3.53;;
79019;SDS011;72857;44.740;37.770;2023-12-20T01:29:41;7.55;;;3.10;;
79019;SDS011;72857;44.740;37.770;2023-12-20T01:30:42;10.88;;;3.55;;
79019;SDS011;72857;44.740;37.770;2023-12-20T01:31:44;6.07;;;3.03;;
79019;SDS011;72857;44.740;37.770;2023-12-20T01:32:46;6.68;;;3.13;;
79019;SDS011;72857;44.740;37.770;2023-12-20T01:33:47;8.73;;;3.97;;
79019;SDS011;72857;44.740;37.770;2023-12-20T01:34:49;9.07;;;3.97;;
79019;SDS011;72857;44.740;37.770;2023-12-20T01:35:51;8.98;;;4.18;;
79019;SDS011;72857;44.740;37.770;2023-12-20T01:36:52;9.38;;;3.60;;
79019;SDS011;72857;44.740;37.770;2023-12-20T01:37:54;7.32;;;3.53;;
79019;SDS011;72857;44.740;37.770;2023-12-20T01:39:00;9.30;;;3.80;;
79019;SDS011;72857;44.740;37.770;2023-12-20T01:40:02;8.25;;;4.20;;
79019;SDS011;72857;44.740;37.770;2023-12-20T01:41:04;6.40;;;4.05;;
79019;SDS011;72857;44.740;37.770;2023-12-20T01:42:06;13.23;;;4.28;;
79019;SDS011;72857;44.740;37.770;2023-12-20T01:43:08;10.00;;;4.20;;
79019;SDS011;72857;44.740;37.770;2023-12-20T01:44:10;10.20;;;4.60;;
79019;SDS011;72857;44.740;37.770;2023-12-20T01:45:16;8.45;;;3.25;;
79019;SDS011;72857;44.740;37.770;2023-12-20T01:46:28;7.07;;;3.33;;
79019;SDS011;72857;44.740;37.770;2023-12-20T01:47:46;11.85;;;5.72;;
79019;SDS011;72857;44.740;37.770;2023-12-20T01:48:48;11.15;;;3.80;;
79019;SDS011;72857;44.740;37.770;2023-12-20T01:49:50;9.30;;;3.95;;
79019;SDS011;72857;44.740;37.770;2023-12-20T01:50:52;9.10;;;3.90;;
79019;SDS011;72857;44.740;37.770;2023-12-20T01:51:55;6.05;;;3.08;;
79019;SDS011;72857;44.740;37.770;2023-12-20T01:52:57;15.82;;;3.58;;
79019;SDS011;72857;44.740;37.770;2023-12-20T01:54:01;9.07;;;3.80;;
79019;SDS011;72857;44.740;37.770;2023-12-20T01:55:04;10.43;;;3.50;;
79019;SDS011;72857;44.740;37.770;2023-12-20T01:56:13;11.73;;;7.57;;
79019;SDS011;72857;44.740;37.770;2023-12-20T01:57:16;15.23;;;9.88;;
79019;SDS011;72857;44.740;37.770;2023-12-20T01:58:18;11.38;;;7.65;;
79019;SDS011;72857;44.740;37.770;2023-12-20T01:59:20;9.82;;;5.22;;
79019;SDS011;72857;44.740;37.770;2023-12-20T02:00:23;9.48;;;3.80;;
79019;SDS011;72857;44.740;37.770;2023-12-20T02:01:27;8.10;;;3.15;;
79019;SDS011;72857;44.740;37.770;2023-12-20T02:02:29;9.40;;;3.20;;
79019;SDS011;72857;44.740;37.770;2023-12-20T03:15:59;6.82;;;3.17;;
79019;SDS011;72857;44.740;37.770;2023-12-20T03:17:01;8.50;;;3.10;;
79019;SDS011;72857;44.740;37.770;2023-12-20T03:18:02;6.80;;;2.92;;
79019;SDS011;72857;44.740;37.770;2023-12-20T03:19:04;6.82;;;2.97;;
79019;SDS011;72857;44.740;37.770;2023-12-20T03:20:05;7.55;;;2.90;;
79019;SDS011;72857;44.740;37.770;2023-12-20T03:21:07;12.32;;;3.95;;
79019;SDS011;72857;44.740;37.770;2023-12-20T03:22:09;6.03;;;3.38;;
79019;SDS011;72857;44.740;37.770;2023-12-20T03:23:10;5.82;;;2.97;;
79019;SDS011;72857;44.740;37.770;2023-12-20T03:24:11;6.85;;;3.38;;
79019;SDS011;72857;44.740;37.770;2023-12-20T03:25:13;9.85;;;3.45;;
79019;SDS011;72857;44.740;37.770;2023-12-20T03:26:14;7.25;;;3.17;;
79019;SDS011;72857;44.740;37.770;2023-12-20T03:27:16;11.30;;;2.83;;
79019;SDS011;72857;44.740;37.770;2023-12-20T03:28:17;16.88;;;3.17;;
79019;SDS011;72857;44.740;37.770;2023-12-20T03:29:19;9.68;;;2.97;;
79019;SDS011;72857;44.740;37.770;2023-12-20T03:30:20;10.57;;;2.90;;
79019;SDS011;72857;44.740;37.770;2023-12-20T03:31:22;8.75;;;3.00;;
79019;SDS011;72857;44.740;37.770;2023-12-20T03:32:23;14.38;;;3.58;;
79019;SDS011;72857;44.740;37.770;2023-12-20T03:33:25;8.65;;;2.75;;
79019;SDS011;72857;44.740;37.770;2023-12-20T03:34:26;20.20;;;3.60;;
79019;SDS011;72857;44.740;37.770;2023-12-20T03:35:28;7.68;;;2.75;;
79019;SDS011;72857;44.740;37.770;2023-12-20T03:36:29;17.33;;;3.15;;
79019;SDS011;72857;44.740;37.770;2023-12-20T03:37:30;17.60;;;3.13;;
79019;SDS011;72857;44.740;37.770;2023-12-20T03:38:32;12.05;;;2.72;;
79019;SDS011;72857;44.740;37.770;2023-12-20T03:39:33;12.68;;;3.05;;
79019;SDS011;72857;44.740;37.770;2023-12-20T03:40:35;14.25;;;3.50;;
79019;SDS011;72857;44.740;37.770;2023-12-20T03:41:36;7.63;;;3.20;;
79019;SDS011;72857;44.740;37.770;2023-12-20T03:42:38;10.10;;;3.50;;
79019;SDS011;72857;44.740;37.770;2023-12-20T03:43:39;27.75;;;3.55;;
79019;SDS011;72857;44.740;37.770;2023-12-20T03:44:40;12.13;;;3.53;;
79019;SDS011;72857;44.740;37.770;2023-12-20T03:45:42;16.35;;;3.97;;
79019;SDS011;72857;44.740;37.770;2023-12-20T03:46:44;14.18;;;3.00;;
79019;SDS011;72857;44.740;37.770;2023-12-20T03:47:46;20.67;;;3.90;;
79019;SDS011;72857;44.740;37.770;2023-12-20T03:48:48;20.77;;;4.45;;
79019;SDS011;72857;44.740;37.770;2023-12-20T03:49:49;8.77;;;3.13;;
79019;SDS011;72857;44.740;37.770;2023-12-20T03:50:51;36.33;;;3.67;;
79019;SDS011;72857;44.740;37.770;2023-12-20T03:51:52;21.27;;;4.45;;
79019;SDS011;72857;44.740;37.770;2023-12-20T03:52:54;11.55;;;3.10;;
79019;SDS011;72857;44.740;37.770;2023-12-20T03:53:55;25.42;;;5.05;;
79019;SDS011;72857;44.740;37.770;2023-12-20T03:54:57;10.40;;;3.00;;
79019;SDS011;72857;44.740;37.770;2023-12-20T03:55:58;12.73;;;2.72;;
79019;SDS011;72857;44.740;37.770;2023-12-20T03:57:00;17.42;;;3.03;;
79019;SDS011;72857;44.740;37.770;2023-12-20T03:58:01;10.75;;;3.50;;
79019;SDS011;72857;44.740;37.770;2023-12-20T03:59:03;12.32;;;3.15;;
79019;SDS011;72857;44.740;37.770;2023-12-20T04:00:05;27.40;;;5.05;;
79019;SDS011;72857;44.740;37.770;2023-12-20T04:01:13;32.75;;;3.72;;
79019;SDS011;72857;44.740;37.770;2023-12-20T04:02:14;7.00;;;2.33;;
79019;SDS011;72857;44.740;37.770;2023-12-20T04:03:15;25.25;;;5.22;;
79019;SDS011;72857;44.740;37.770;2023-12-20T04:04:17;8.48;;;2.85;;
79019;SDS011;72857;44.740;37.770;2023-12-20T04:05:18;15.20;;;2.80;;
79019;SDS011;72857;44.740;37.770;2023-12-20T04:06:20;11.77;;;2.72;;
79019;SDS011;72857;44.740;37.770;2023-12-20T04:07:22;10.73;;;2.85;;
79019;SDS011;72857;44.740;37.770;2023-12-20T04:08:23;7.75;;;2.80;;
79019;SDS011;72857;44.740;37.770;2023-12-20T04:09:25;13.50;;;3.38;;
79019;SDS011;72857;44.740;37.770;2023-12-20T04:10:26;9.48;;;2.63;;
79019;SDS011;72857;44.740;37.770;2023-12-20T04:11:27;7.07;;;2.58;;
79019;SDS011;72857;44.740;37.770;2023-12-20T04:12:29;8.15;;;3.25;;
79019;SDS011;72857;44.740;37.770;2023-12-20T04:13:30;5.05;;;2.35;;
79019;SDS011;72857;44.740;37.770;2023-12-20T04:14:32;6.07;;;2.58;;
79019;SDS011;72857;44.740;37.770;2023-12-20T04:15:33;9.55;;;2.90;;
79019;SDS011;72857;44.740;37.770;2023-12-20T04:16:35;13.23;;;3.25;;
79019;SDS011;72857;44.740;37.770;2023-12-20T04:17:37;11.35;;;2.30;;
79019;SDS011;72857;44.740;37.770;2023-12-20T04:18:38;8.88;;;2.72;;
79019;SDS011;72857;44.740;37.770;2023-12-20T04:19:40;16.58;;;3.05;;
79019;SDS011;72857;44.740;37.770;2023-12-20T04:20:41;8.45;;;2.83;;
79019;SDS011;72857;44.740;37.770;2023-12-20T04:21:43;14.15;;;3.47;;
79019;SDS011;72857;44.740;37.770;2023-12-20T04:22:44;7.45;;;2.53;;
79019;SDS011;72857;44.740;37.770;2023-12-20T04:23:45;4.97;;;2.63;;
79019;SDS011;72857;44.740;37.770;2023-12-20T04:24:47;10.68;;;2.58;;
79019;SDS011;72857;44.740;37.770;2023-12-20T04:25:48;7.55;;;2.67;;
79019;SDS011;72857;44.740;37.770;2023-12-20T04:26:50;7.47;;;2.53;;
79019;SDS011;72857;44.740;37.770;2023-12-20T04:27:51;16.05;;;3.22;;
79019;SDS011;72857;44.740;37.770;2023-12-20T04:28:53;9.07;;;2.38;;
79019;SDS011;72857;44.740;37.770;2023-12-20T04:30:00;7.03;;;2.63;;
79019;SDS011;72857;44.740;37.770;2023-12-20T04:31:01;5.10;;;2.40;;
79019;SDS011;72857;44.740;37.770;2023-12-20T04:32:04;4.88;;;2.47;;
79019;SDS011;72857;44.740;37.770;2023-12-20T04:33:06;12.50;;;2.72;;
79019;SDS011;72857;44.740;37.770;2023-12-20T04:34:07;5.78;;;3.00;;
79019;SDS011;72857;44.740;37.770;2023-12-20T04:35:09;5.40;;;2.45;;
79019;SDS011;72857;44.740;37.770;2023-12-20T04:36:10;10.43;;;2.60;;
79019;SDS011;72857;44.740;37.770;2023-12-20T04:37:12;9.15;;;2.38;;
79019;SDS011;72857;44.740;37.770;2023-12-20T04:38:13;7.25;;;2.33;;
79019;SDS011;72857;44.740;37.770;2023-12-20T04:39:15;5.18;;;2.78;;
79019;SDS011;72857;44.740;37.770;2023-12-20T04:40:16;7.78;;;2.47;;
79019;SDS011;72857;44.740;37.770;2023-12-20T04:41:18;6.78;;;2.80;;
79019;SDS011;72857;44.740;37.770;2023-12-20T04:42:19;4.57;;;1.98;;
79019;SDS011;72857;44.740;37.770;2023-12-20T04:43:21;9.73;;;2.70;;
79019;SDS011;72857;44.740;37.770;2023-12-20T04:44:22;5.18;;;2.47;;
79019;SDS011;72857;44.740;37.770;2023-12-20T04:45:24;4.93;;;2.00;;
79019;SDS011;72857;44.740;37.770;2023-12-20T04:46:26;4.85;;;2.00;;
79019;SDS011;72857;44.740;37.770;2023-12-20T04:47:27;6.78;;;2.80;;
79019;SDS011;72857;44.740;37.770;2023-12-20T04:48:29;6.55;;;2.05;;
79019;SDS011;72857;44.740;37.770;2023-12-20T04:49:30;7.32;;;2.70;;
79019;SDS011;72857;44.740;37.770;2023-12-20T04:50:32;6.55;;;2.25;;
79019;SDS011;72857;44.740;37.770;2023-12-20T04:51:34;4.35;;;1.90;;
79019;SDS011;72857;44.740;37.770;2023-12-20T04:52:35;4.97;;;2.05;;
79019;SDS011;72857;44.740;37.770;2023-12-20T04:53:37;8.13;;;2.50;;
79019;SDS011;72857;44.740;37.770;2023-12-20T04:54:38;6.47;;;2.53;;
79019;SDS011;72857;44.740;37.770;2023-12-20T04:55:39;4.93;;;2.10;;
79019;SDS011;72857;44.740;37.770;2023-12-20T04:56:41;4.95;;;2.20;;
79019;SDS011;72857;44.740;37.770;2023-12-20T04:57:42;6.13;;;2.30;;
79019;SDS011;72857;44.740;37.770;2023-12-20T04:58:44;6.82;;;2.38;;
79019;SDS011;72857;44.740;37.770;2023-12-20T04:59:45;6.30;;;2.20;;
79019;SDS011;72857;44.740;37.770;2023-12-20T05:00:47;5.80;;;2.10;;
79019;SDS011;72857;44.740;37.770;2023-12-20T05:01:48;5.90;;;2.38;;
79019;SDS011;72857;44.740;37.770;2023-12-20T05:02:49;5.97;;;2.25;;
79019;SDS011;72857;44.740;37.770;2023-12-20T05:03:51;5.35;;;2.30;;
79019;SDS011;72857;44.740;37.770;2023-12-20T05:04:52;5.50;;;2.40;;
79019;SDS011;72857;44.740;37.770;2023-12-20T05:05:54;6.80;;;2.30;;
79019;SDS011;72857;44.740;37.770;2023-12-20T05:06:55;4.82;;;2.38;;
79019;SDS011;72857;44.740;37.770;2023-12-20T05:07:57;7.97;;;3.17;;
79019;SDS011;72857;44.740;37.770;2023-12-20T05:08:58;6.35;;;2.25;;
79019;SDS011;72857;44.740;37.770;2023-12-20T05:09:59;8.13;;;2.75;;
79019;SDS011;72857;44.740;37.770;2023-12-20T05:11:01;7.32;;;2.10;;
79019;SDS011;72857;44.740;37.770;2023-12-20T05:12:03;5.72;;;2.60;;
79019;SDS011;72857;44.740;37.770;2023-12-20T05:13:04;6.68;;;2.30;;
79019;SDS011;72857;44.740;37.770;2023-12-20T05:14:06;5.60;;;2.53;;
79019;SDS011;72857;44.740;37.770;2023-12-20T05:15:08;9.10;;;2.60;;
79019;SDS011;72857;44.740;37.770;2023-12-20T05:16:09;7.03;;;2.65;;
79019;SDS011;72857;44.740;37.770;2023-12-20T05:17:11;6.63;;;2.70;;
79019;SDS011;72857;44.740;37.770;2023-12-20T05:18:13;7.65;;;2.70;;
79019;SDS011;72857;44.740;37.770;2023-12-20T05:19:14;6.13;;;2.35;;
79019;SDS011;72857;44.740;37.770;2023-12-20T05:20:16;6.57;;;2.63;;
79019;SDS011;72857;44.740;37.770;2023-12-20T05:21:17;6.32;;;2.63;;
79019;SDS011;72857;44.740;37.770;2023-12-20T05:22:19;5.90;;;2.50;;
79019;SDS011;72857;44.740;37.770;2023-12-20T05:23:21;8.55;;;2.67;;
79019;SDS011;72857;44.740;37.770;2023-12-20T05:24:22;5.07;;;2.13;;
79019;SDS011;72857;44.740;37.770;2023-12-20T05:25:24;5.80;;;2.38;;
79019;SDS011;72857;44.740;37.770;2023-12-20T05:26:25;6.95;;;2.58;;
79019;SDS011;72857;44.740;37.770;2023-12-20T05:27:27;4.22;;;2.00;;
79019;SDS011;72857;44.740;37.770;2023-12-20T05:28:28;6.10;;;2.30;;
79019;SDS011;72857;44.740;37.770;2023-12-20T05:29:30;5.88;;;1.98;;
79019;SDS011;72857;44.740;37.770;2023-12-20T05:30:31;3.97;;;1.75;;
79019;SDS011;72857;44.740;37.770;2023-12-20T05:31:33;5.15;;;2.40;;
79019;SDS011;72857;44.740;37.770;2023-12-20T05:32:34;11.20;;;2.13;;
79019;SDS011;72857;44.740;37.770;2023-12-20T05:33:36;7.45;;;1.80;;
79019;SDS011;72857;44.740;37.770;2023-12-20T05:34:38;6.07;;;2.05;;
79019;SDS011;72857;44.740;37.770;2023-12-20T05:35:39;6.05;;;2.92;;
79019;SDS011;72857;44.740;37.770;2023-12-20T05:36:40;8.10;;;4.18;;
79019;SDS011;72857;44.740;37.770;2023-12-20T05:37:42;7.25;;;2.97;;
79019;SDS011;72857;44.740;37.770;2023-12-20T05:38:43;6.47;;;3.03;;
79019;SDS011;72857;44.740;37.770;2023-12-20T05:39:44;5.85;;;2.40;;
79019;SDS011;72857;44.740;37.770;2023-12-20T05:40:46;6.07;;;2.63;;
79019;SDS011;72857;44.740;37.770;2023-12-20T05:41:47;5.95;;;1.90;;
79019;SDS011;72857;44.740;37.770;2023-12-20T05:42:49;5.55;;;1.98;;
79019;SDS011;72857;44.740;37.770;2023-12-20T05:43:50;5.53;;;1.90;;
79019;SDS011;72857;44.740;37.770;2023-12-20T05:44:52;4.75;;;2.20;;
79019;SDS011;72857;44.740;37.770;2023-12-20T05:45:53;7.38;;;2.00;;
79019;SDS011;72857;44.740;37.770;2023-12-20T05:46:55;6.88;;;1.85;;
79019;SDS011;72857;44.740;37.770;2023-12-20T05:47:56;5.82;;;1.55;;
79019;SDS011;72857;44.740;37.770;2023-12-20T05:48:57;5.05;;;1.88;;
79019;SDS011;72857;44.740;37.770;2023-12-20T05:49:59;5.32;;;2.22;;
79019;SDS011;72857;44.740;37.770;2023-12-20T05:51:00;6.03;;;2.20;;
79019;SDS011;72857;44.740;37.770;2023-12-20T05:52:02;8.65;;;1.88;;
79019;SDS011;72857;44.740;37.770;2023-12-20T05:53:03;4.47;;;1.60;;
79019;SDS011;72857;44.740;37.770;2023-12-20T05:54:05;5.43;;;1.83;;
79019;SDS011;72857;44.740;37.770;2023-12-20T05:55:07;4.38;;;1.50;;
79019;SDS011;72857;44.740;37.770;2023-12-20T05:56:08;4.35;;;1.60;;
79019;SDS011;72857;44.740;37.770;2023-12-20T05:57:09;4.03;;;1.60;;
79019;SDS011;72857;44.740;37.770;2023-12-20T05:58:11;5.40;;;1.90;;
79019;SDS011;72857;44.740;37.770;2023-12-20T05:59:13;5.30;;;1.85;;
79019;SDS011;72857;44.740;37.770;2023-12-20T06:00:14;5.60;;;2.03;;
79019;SDS011;72857;44.740;37.770;2023-12-20T06:01:16;7.65;;;2.40;;
79019;SDS011;72857;44.740;37.770;2023-12-20T06:02:18;5.32;;;2.03;;
79019;SDS011;72857;44.740;37.770;2023-12-20T06:03:19;5.97;;;1.80;;
79019;SDS011;72857;44.740;37.770;2023-12-20T06:04:21;4.13;;;1.70;;
79019;SDS011;72857;44.740;37.770;2023-12-20T06:05:22;8.82;;;1.80;;
79019;SDS011;72857;44.740;37.770;2023-12-20T06:06:24;6.55;;;1.67;;
79019;SDS011;72857;44.740;37.770;2023-12-20T06:07:25;3.60;;;1.73;;
79019;SDS011;72857;44.740;37.770;2023-12-20T06:08:27;4.35;;;1.60;;
79019;SDS011;72857;44.740;37.770;2023-12-20T06:09:28;4.70;;;1.90;;
79019;SDS011;72857;44.740;37.770;2023-12-20T06:10:29;4.28;;;1.80;;
79019;SDS011;72857;44.740;37.770;2023-12-20T06:11:31;5.07;;;2.10;;
79019;SDS011;72857;44.740;37.770;2023-12-20T06:12:32;6.82;;;1.92;;
79019;SDS011;72857;44.740;37.770;2023-12-20T06:13:36;3.92;;;1.80;;
79019;SDS011;72857;44.740;37.770;2023-12-20T06:14:37;6.85;;;3.08;;
79019;SDS011;72857;44.740;37.770;2023-12-20T06:15:39;3.50;;;1.73;;
79019;SDS011;72857;44.740;37.770;2023-12-20T06:16:43;6.15;;;2.10;;
79019;SDS011;72857;44.740;37.770;2023-12-20T06:17:46;3.35;;;1.38;;
79019;SDS011;72857;44.740;37.770;2023-12-20T06:18:47;4.75;;;1.85;;
79019;SDS011;72857;44.740;37.770;2023-12-20T06:19:49;6.10;;;1.85;;
79019;SDS011;72857;44.740;37.770;2023-12-20T06:20:50;5.35;;;1.80;;
79019;SDS011;72857;44.740;37.770;2023-12-20T06:21:51;6.50;;;1.88;;
79019;SDS011;72857;44.740;37.770;2023-12-20T06:22:53;5.50;;;1.85;;
79019;SDS011;72857;44.740;37.770;2023-12-20T06:23:54;7.05;;;1.88;;
79019;SDS011;72857;44.740;37.770;2023-12-20T06:24:56;6.80;;;1.95;;
79019;SDS011;72857;44.740;37.770;2023-12-20T06:25:57;5.60;;;1.60;;
79019;SDS011;72857;44.740;37.770;2023-12-20T06:26:58;5.72;;;2.03;;
79019;SDS011;72857;44.740;37.770;2023-12-20T06:28:00;5.70;;;1.58;;
79019;SDS011;72857;44.740;37.770;2023-12-20T06:29:01;4.38;;;1.70;;
79019;SDS011;72857;44.740;37.770;2023-12-20T06:30:03;4.22;;;1.77;;
79019;SDS011;72857;44.740;37.770;2023-12-20T06:31:05;5.28;;;1.70;;
79019;SDS011;72857;44.740;37.770;2023-12-20T06:32:06;4.28;;;2.10;;
79019;SDS011;72857;44.740;37.770;2023-12-20T06:33:08;4.22;;;1.85;;
79019;SDS011;72857;44.740;37.770;2023-12-20T06:34:10;4.68;;;1.80;;
79019;SDS011;72857;44.740;37.770;2023-12-20T06:35:12;4.72;;;1.70;;
79019;SDS011;72857;44.740;37.770;2023-12-20T06:36:13;4.72;;;1.73;;
79019;SDS011;72857;44.740;37.770;2023-12-20T06:37:15;5.03;;;1.90;;
79019;SDS011;72857;44.740;37.770;2023-12-20T06:38:17;5.93;;;1.80;;
79019;SDS011;72857;44.740;37.770;2023-12-20T06:39:19;4.35;;;1.67;;
79019;SDS011;72857;44.740;37.770;2023-12-20T06:40:20;6.65;;;1.60;;
79019;SDS011;72857;44.740;37.770;2023-12-20T06:41:22;7.75;;;1.92;;
79019;SDS011;72857;44.740;37.770;2023-12-20T06:42:25;6.25;;;1.85;;
79019;SDS011;72857;44.740;37.770;2023-12-20T06:43:26;4.80;;;1.60;;
79019;SDS011;72857;44.740;37.770;2023-12-20T06:44:28;3.88;;;1.60;;
79019;SDS011;72857;44.740;37.770;2023-12-20T06:45:29;5.85;;;1.80;;
79019;SDS011;72857;44.740;37.770;2023-12-20T06:46:32;9.00;;;1.60;;
79019;SDS011;72857;44.740;37.770;2023-12-20T06:47:33;4.32;;;1.88;;
79019;SDS011;72857;44.740;37.770;2023-12-20T06:48:35;5.13;;;1.98;;
79019;SDS011;72857;44.740;37.770;2023-12-20T06:49:37;7.65;;;2.33;;
79019;SDS011;72857;44.740;37.770;2023-12-20T06:50:38;4.43;;;2.00;;
79019;SDS011;72857;44.740;37.770;2023-12-20T06:51:40;5.78;;;1.85;;
79019;SDS011;72857;44.740;37.770;2023-12-20T06:52:42;5.15;;;2.20;;
79019;SDS011;72857;44.740;37.770;2023-12-20T06:53:43;6.47;;;2.10;;
79019;SDS011;72857;44.740;37.770;2023-12-20T06:54:45;3.58;;;1.88;;
79019;SDS011;72857;44.740;37.770;2023-12-20T06:55:46;6.82;;;2.00;;
79019;SDS011;72857;44.740;37.770;2023-12-20T06:56:48;5.72;;;2.28;;
79019;SDS011;72857;44.740;37.770;2023-12-20T06:57:49;5.90;;;1.83;;
79019;SDS011;72857;44.740;37.770;2023-12-20T06:58:50;6.18;;;1.80;;
79019;SDS011;72857;44.740;37.770;2023-12-20T06:59:52;6.10;;;1.70;;
79019;SDS011;72857;44.740;37.770;2023-12-20T07:00:54;10.52;;;2.03;;
79019;SDS011;72857;44.740;37.770;2023-12-20T07:01:55;6.53;;;1.70;;
79019;SDS011;72857;44.740;37.770;2023-12-20T07:02:57;4.32;;;1.90;;
79019;SDS011;72857;44.740;37.770;2023-12-20T07:03:58;4.85;;;1.75;;
79019;SDS011;72857;44.740;37.770;2023-12-20T07:05:00;6.47;;;2.28;;
79019;SDS011;72857;44.740;37.770;2023-12-20T07:06:01;7.55;;;2.30;;
79019;SDS011;72857;44.740;37.770;2023-12-20T07:07:03;6.13;;;1.60;;
79019;SDS011;72857;44.740;37.770;2023-12-20T07:08:05;5.72;;;1.73;;
79019;SDS011;72857;44.740;37.770;2023-12-20T07:09:06;5.38;;;2.20;;
79019;SDS011;72857;44.740;37.770;2023-12-20T07:10:09;5.72;;;2.30;;
79019;SDS011;72857;44.740;37.770;2023-12-20T07:11:12;4.68;;;2.00;;
79019;SDS011;72857;44.740;37.770;2023-12-20T07:12:14;6.03;;;2.25;;
79019;SDS011;72857;44.740;37.770;2023-12-20T07:13:15;4.80;;;1.65;;
79019;SDS011;72857;44.740;37.770;2023-12-20T07:14:17;5.45;;;1.90;;
79019;SDS011;72857;44.740;37.770;2023-12-20T07:15:18;4.20;;;1.70;;
79019;SDS011;72857;44.740;37.770;2023-12-20T07:16:19;7.25;;;2.03;;
79019;SDS011;72857;44.740;37.770;2023-12-20T07:17:23;6.05;;;2.00;;
79019;SDS011;72857;44.740;37.770;2023-12-20T07:18:25;5.80;;;2.20;;